Time;durP1;ratioP1;P1;durP2;ratioP2;P2;SDS_P1;SDS_P2;PMS_P1;PMS_P2;Temp;Humidity;BMP_temperature;BMP_pressure;BME280_temperature;BME280_humidity;BME280_pressure;Samples;Min_cycle;Max_cycle;Signal;HPM_P1;HPM_P2
2022/12/01 00:01:02;;;;;;;47.03;25.83;;;1.40;1.00;;;;;;10451754;28;20243;-82
2022/12/01 00:06:24;;;;;;;45.53;26.53;;;1.40;1.00;;;;;;10465138;28;20205;-84
2022/12/01 00:11:45;;;;;;;52.13;26.47;;;1.40;1.00;;;;;;10451360;28;20230;-82
2022/12/01 00:17:06;;;;;;;44.90;25.03;;;1.40;1.00;;;;;;10464971;28;20238;-83
2022/12/01 00:22:27;;;;;;;42.17;23.77;;;1.40;1.00;;;;;;10504571;28;20199;-82
2022/12/01 00:27:50;;;;;;;37.67;22.37;;;1.50;1.00;;;;;;10485071;28;20269;-84
2022/12/01 00:33:12;;;;;;;46.23;25.03;;;1.50;1.00;;;;;;10464294;28;20231;-82
2022/12/01 00:38:34;;;;;;;47.10;23.90;;;1.50;1.00;;;;;;10464233;28;20201;-82
2022/12/01 00:43:55;;;;;;;40.20;22.67;;;1.50;1.00;;;;;;10506482;28;20224;-82
2022/12/01 00:49:16;;;;;;;42.30;22.03;;;1.50;1.00;;;;;;10561142;28;20275;-83
2022/12/01 00:54:38;;;;;;;40.30;22.53;;;1.40;1.00;;;;;;10547472;28;20265;-83
2022/12/01 00:59:59;;;;;;;35.60;21.10;;;1.50;1.00;;;;;;10507041;28;20425;-83
2022/12/01 01:05:20;;;;;;;34.40;20.67;;;1.50;1.00;;;;;;10505819;28;20198;-85
2022/12/01 01:10:44;;;;;;;41.10;22.70;;;1.60;1.00;;;;;;10505195;28;20226;-82
2022/12/01 01:16:08;;;;;;;36.43;21.90;;;1.50;1.00;;;;;;10504468;28;20197;-84
2022/12/01 01:21:29;;;;;;;35.27;20.67;;;1.50;1.00;;;;;;11389816;22;20233;-80
2022/12/01 01:26:51;;;;;;;40.40;22.17;;;1.60;1.00;;;;;;10413288;28;20195;-80
2022/12/01 01:32:12;;;;;;;35.10;20.90;;;1.60;1.00;;;;;;10446084;28;20223;-87
2022/12/01 01:37:33;;;;;;;37.63;20.83;;;1.60;1.00;;;;;;10463006;28;20195;-78
2022/12/01 01:42:54;;;;;;;37.83;20.93;;;1.60;1.00;;;;;;10420129;28;20422;-88
2022/12/01 01:48:16;;;;;;;32.80;19.53;;;1.60;1.00;;;;;;10437155;28;20205;-82
2022/12/01 01:53:37;;;;;;;33.87;20.33;;;1.60;1.00;;;;;;10429544;28;20222;-79
2022/12/01 01:58:58;;;;;;;28.67;17.67;;;1.60;1.00;;;;;;10459587;28;20191;-79
2022/12/01 02:04:20;;;;;;;34.77;19.77;;;1.70;1.00;;;;;;10469626;28;20205;-79
2022/12/01 02:09:41;;;;;;;30.37;18.50;;;1.70;1.00;;;;;;10484802;28;20214;-80
2022/12/01 02:15:34;;;;;;;35.30;19.63;;;1.70;1.00;;;;;;10484435;28;20218;-79
2022/12/01 02:21:07;;;;;;;30.03;18.10;;;1.70;1.00;;;;;;10452320;28;20196;-83
2022/12/01 02:26:43;;;;;;;34.23;19.30;;;1.70;1.00;;;;;;10469893;28;20206;-81
2022/12/01 02:32:46;;;;;;;28.70;17.53;;;1.60;1.00;;;;;;10439385;28;20231;-79
2022/12/01 02:38:47;;;;;;;27.27;17.43;;;1.70;1.00;;;;;;10454998;28;20184;-82
2022/12/01 02:44:37;;;;;;;28.47;17.27;;;1.70;1.00;;;;;;10277405;29;20207;-83
2022/12/01 02:50:00;;;;;;;30.43;18.57;;;1.70;1.00;;;;;;10264126;29;20261;-79
2022/12/01 02:55:22;;;;;;;34.47;18.10;;;1.70;1.00;;;;;;10246810;29;20211;-79
2022/12/01 03:01:06;;;;;;;30.50;17.73;;;1.70;99.90;;;;;;10236661;29;20218;-88
2022/12/01 03:06:58;;;;;;;26.43;16.40;;;1.60;99.90;;;;;;10236456;29;20674;-85
2022/12/01 03:12:36;;;;;;;29.07;17.10;;;1.60;99.90;;;;;;10235336;29;20265;-80
2022/12/01 03:18:19;;;;;;;26.60;16.57;;;1.60;99.90;;;;;;10398373;28;20227;-81
2022/12/01 03:23:49;;;;;;;31.57;18.73;;;1.60;99.90;;;;;;10452272;28;20463;-82
2022/12/01 03:29:20;;;;;;;28.27;16.10;;;1.60;1.00;;;;;;10449999;28;20363;-79
2022/12/01 03:34:48;;;;;;;22.23;14.50;;;1.70;99.90;;;;;;10467185;28;20242;-95
2022/12/01 03:40:13;;;;;;;23.23;14.60;;;1.60;1.00;;;;;;10449975;28;20203;-81
2022/12/01 03:46:16;;;;;;;23.27;15.20;;;1.60;99.90;;;;;;10466688;28;20188;-80
2022/12/01 03:51:42;;;;;;;23.93;14.87;;;1.70;89.70;;;;;;10467021;28;20223;-84
2022/12/01 03:57:08;;;;;;;20.53;14.53;;;1.70;1.00;;;;;;10466036;28;20194;-82
2022/12/01 04:02:30;;;;;;;26.47;15.13;;;1.70;1.00;;;;;;10466721;28;20229;-79
2022/12/01 04:07:52;;;;;;;22.17;14.93;;;1.70;1.00;;;;;;10449123;28;20442;-84
2022/12/01 04:13:31;;;;;;;18.43;13.20;;;1.60;1.00;;;;;;10453518;28;20219;-92
2022/12/01 04:18:53;;;;;;;19.80;13.93;;;1.60;1.00;;;;;;10449107;28;20202;-82
2022/12/01 04:24:14;;;;;;;21.93;15.27;;;1.70;1.00;;;;;;10482298;28;20459;-87
2022/12/01 04:29:35;;;;;;;21.83;14.53;;;1.70;1.00;;;;;;10523722;28;20226;-93
2022/12/01 04:34:56;;;;;;;23.90;14.90;;;1.70;99.90;;;;;;10493056;28;20558;-81
2022/12/01 04:40:18;;;;;;;31.47;17.13;;;1.70;1.00;;;;;;10515552;28;20207;-79
2022/12/01 04:45:39;;;;;;;24.40;17.40;;;1.80;9.00;;;;;;10494877;28;20509;-79
2022/12/01 04:51:01;;;;;;;25.40;17.47;;;1.70;99.90;;;;;;10476161;28;20242;-91
2022/12/01 04:56:23;;;;;;;24.67;16.03;;;1.80;99.90;;;;;;10450840;28;20191;-78
2022/12/01 05:01:46;;;;;;;25.90;16.30;;;1.80;99.90;;;;;;10468300;28;20210;-93
2022/12/01 05:07:07;;;;;;;20.20;14.60;;;1.80;99.90;;;;;;10465758;28;20378;-79
2022/12/01 05:12:29;;;;;;;21.03;14.70;;;1.70;1.00;;;;;;10463235;28;20579;-89
2022/12/01 05:17:50;;;;;;;18.77;14.13;;;1.60;1.00;;;;;;10466542;28;20180;-88
2022/12/01 05:23:12;;;;;;;23.33;14.23;;;1.60;1.00;;;;;;10466759;28;20284;-79
2022/12/01 05:28:36;;;;;;;19.77;13.33;;;1.60;1.00;;;;;;10468621;28;20184;-82
2022/12/01 05:33:57;;;;;;;20.30;13.37;;;1.60;1.00;;;;;;10472016;28;20307;-78
2022/12/01 05:39:18;;;;;;;19.87;13.63;;;1.60;1.00;;;;;;10472712;28;20196;-78
2022/12/01 05:44:40;;;;;;;22.63;14.87;;;1.70;1.00;;;;;;10470082;28;20194;-78
2022/12/01 05:50:01;;;;;;;24.37;16.47;;;1.60;1.00;;;;;;10442088;28;20220;-80
2022/12/01 05:55:25;;;;;;;21.17;15.70;;;1.50;1.00;;;;;;10453811;28;20231;-79
2022/12/01 06:00:46;;;;;;;23.40;16.53;;;1.50;1.00;;;;;;10469670;28;20350;-78
2022/12/01 06:06:09;;;;;;;23.00;16.53;;;1.60;1.00;;;;;;10476220;28;20200;-84
2022/12/01 06:11:38;;;;;;;24.13;17.63;;;1.60;1.00;;;;;;10469880;28;20220;-79
2022/12/01 06:16:59;;;;;;;30.00;19.27;;;1.60;1.00;;;;;;10452377;28;20192;-78
2022/12/01 06:22:20;;;;;;;36.40;22.73;;;1.60;80.90;;;;;;10451928;28;20239;-84
2022/12/01 06:27:41;;;;;;;35.00;21.43;;;1.60;1.00;;;;;;10469186;28;20188;-78
2022/12/01 06:33:03;;;;;;;30.23;20.40;;;1.60;1.00;;;;;;10468909;28;20265;-85
2022/12/01 06:38:24;;;;;;;27.73;17.57;;;1.60;1.00;;;;;;10451839;28;20198;-94
2022/12/01 06:43:45;;;;;;;23.67;17.20;;;1.60;99.90;;;;;;10437322;28;20453;-82
2022/12/01 06:49:11;;;;;;;23.47;16.10;;;1.50;99.90;;;;;;10454283;28;20195;-80
2022/12/01 06:54:32;;;;;;;25.20;16.43;;;1.50;1.00;;;;;;10467752;28;20236;-79
2022/12/01 06:59:53;;;;;;;23.37;16.20;;;1.50;1.00;;;;;;10450964;28;20202;-80
2022/12/01 07:05:14;;;;;;;25.77;18.40;;;1.60;1.00;;;;;;10467923;28;20188;-80
2022/12/01 07:10:36;;;;;;;27.00;17.53;;;1.50;1.00;;;;;;10454404;28;20281;-81
2022/12/01 07:15:57;;;;;;;22.60;16.13;;;1.60;99.90;;;;;;10450876;28;20205;-79
2022/12/01 07:21:19;;;;;;;26.27;17.87;;;1.60;1.00;;;;;;10449607;28;20230;-79
2022/12/01 07:26:40;;;;;;;32.23;20.87;;;1.50;1.00;;;;;;10449595;28;20218;-80
2022/12/01 07:32:01;;;;;;;31.00;19.83;;;1.50;1.00;;;;;;10466576;28;20226;-79
2022/12/01 07:37:22;;;;;;;26.43;17.60;;;1.60;1.00;;;;;;10480931;28;20183;-80
2022/12/01 07:42:43;;;;;;;29.00;19.13;;;1.60;1.00;;;;;;10463138;28;20197;-79
2022/12/01 07:48:04;;;;;;;32.60;20.27;;;1.60;1.00;;;;;;10462942;28;20389;-80
2022/12/01 07:53:25;;;;;;;30.07;21.23;;;1.60;99.90;;;;;;10449138;28;20272;-84
2022/12/01 07:58:46;;;;;;;30.17;18.83;;;1.60;99.90;;;;;;10449160;28;20244;-82
2022/12/01 08:04:08;;;;;;;28.07;19.23;;;1.60;1.00;;;;;;10465625;28;20446;-79
2022/12/01 08:09:29;;;;;;;27.00;18.27;;;1.60;99.90;;;;;;10447901;28;20196;-80
2022/12/01 08:14:50;;;;;;;26.80;18.90;;;1.60;1.00;;;;;;10420669;28;20199;-83
2022/12/01 08:20:12;;;;;;;36.60;22.97;;;1.70;1.00;;;;;;10407337;28;20256;-81
2022/12/01 08:25:33;;;;;;;37.03;21.93;;;1.70;99.90;;;;;;10456930;28;20229;-79
2022/12/01 08:30:54;;;;;;;31.47;19.67;;;1.70;1.00;;;;;;10409107;28;20235;-81
2022/12/01 08:36:17;;;;;;;30.23;20.40;;;1.70;1.00;;;;;;10437826;28;20601;-81
2022/12/01 08:41:38;;;;;;;31.50;20.47;;;1.70;1.00;;;;;;10453306;28;20199;-81
2022/12/01 08:46:59;;;;;;;38.00;23.50;;;1.60;5.30;;;;;;10444393;28;20218;-84
2022/12/01 08:52:21;;;;;;;29.47;19.43;;;1.70;1.00;;;;;;10427060;28;20238;-80
2022/12/01 08:57:42;;;;;;;31.13;19.53;;;1.80;99.90;;;;;;10469654;28;20205;-81
2022/12/01 09:03:03;;;;;;;27.83;18.10;;;1.80;99.90;;;;;;10440224;28;20193;-83
2022/12/01 09:08:30;;;;;;;28.37;18.53;;;1.70;99.90;;;;;;10439961;28;20205;-84
2022/12/01 09:13:51;;;;;;;25.03;16.33;;;1.70;85.30;;;;;;10447399;28;20229;-79
2022/12/01 09:19:15;;;;;;;34.43;21.83;;;1.80;1.00;;;;;;10447394;28;20207;-81
2022/12/01 09:24:40;;;;;;;34.60;21.90;;;1.80;24.10;;;;;;10446457;28;20462;-81
2022/12/01 09:30:01;;;;;;;35.00;22.33;;;1.90;1.00;;;;;;10448965;28;20403;-81
2022/12/01 09:35:22;;;;;;;41.27;23.37;;;1.90;1.00;;;;;;10451107;28;20280;-80
2022/12/01 09:40:44;;;;;;;48.87;24.13;;;1.80;23.10;;;;;;10450259;28;20209;-86
2022/12/01 09:46:08;;;;;;;58.57;30.00;;;2.00;1.00;;;;;;10411285;28;20200;-83
2022/12/01 09:51:33;;;;;;;36.23;21.07;;;2.00;1.00;;;;;;10410340;28;20298;-81
2022/12/01 09:56:55;;;;;;;42.93;24.47;;;2.00;1.00;;;;;;10463742;28;20439;-81
2022/12/01 10:02:30;;;;;;;32.30;19.93;;;2.00;1.00;;;;;;10469741;28;20218;-83
2022/12/01 10:08:00;;;;;;;27.00;17.67;;;1.90;1.00;;;;;;10461775;28;20176;-88
2022/12/01 10:13:27;;;;;;;35.37;19.63;;;2.00;1.00;;;;;;10444025;28;20285;-83
2022/12/01 10:18:57;;;;;;;40.37;20.33;;;1.90;1.00;;;;;;10451617;28;20195;-81
2022/12/01 10:24:53;;;;;;;43.37;22.33;;;2.00;1.00;;;;;;10452380;28;20301;-82
2022/12/01 10:30:17;;;;;;;32.47;19.43;;;2.00;40.90;;;;;;10448466;28;20243;-84
2022/12/01 10:35:42;;;;;;;33.13;19.93;;;2.00;99.90;;;;;;10438732;28;20193;-87
2022/12/01 10:41:10;;;;;;;37.83;22.37;;;2.00;1.00;;;;;;10430651;28;20265;-81
2022/12/01 10:46:49;;;;;;;32.97;17.63;;;1.90;11.80;;;;;;10446515;28;20405;-82
2022/12/01 10:52:34;;;;;;;34.33;19.57;;;1.90;1.00;;;;;;10446001;28;20223;-81
2022/12/01 10:57:58;;;;;;;33.73;21.47;;;1.90;1.00;;;;;;10445762;28;20222;-82
2022/12/01 11:03:24;;;;;;;27.00;18.87;;;1.90;51.20;;;;;;10463589;28;20191;-82
2022/12/01 11:08:58;;;;;;;25.80;16.83;;;2.00;1.00;;;;;;10445246;28;20418;-81
2022/12/01 11:14:29;;;;;;;28.53;17.30;;;2.00;1.00;;;;;;10420589;28;20231;-81
2022/12/01 11:19:50;;;;;;;21.27;14.30;;;1.90;1.00;;;;;;10455287;28;20507;-86
2022/12/01 11:25:20;;;;;;;27.97;16.50;;;1.80;1.00;;;;;;10474440;28;20260;-82
2022/12/01 11:30:42;;;;;;;34.80;19.93;;;1.90;1.00;;;;;;10474856;28;20425;-82
2022/12/01 11:36:04;;;;;;;29.07;16.63;;;1.90;99.90;;;;;;10428355;28;20250;-84
2022/12/01 11:41:35;;;;;;;22.03;13.50;;;1.90;1.00;;;;;;10430987;28;20298;-85
2022/12/01 11:46:57;;;;;;;20.13;12.77;;;1.90;1.00;;;;;;10430308;28;20199;-82
2022/12/01 11:52:45;;;;;;;23.47;15.23;;;1.90;1.00;;;;;;10443197;28;20245;-84
2022/12/01 11:58:07;;;;;;;18.50;12.20;;;1.80;99.90;;;;;;10443351;28;20192;-83
2022/12/01 12:03:44;;;;;;;15.00;11.73;;;1.70;99.90;;;;;;10430780;28;20266;-86
2022/12/01 12:09:23;;;;;;;16.90;11.23;;;1.80;1.00;;;;;;10444120;28;20198;-85
2022/12/01 12:15:09;;;;;;;15.13;9.77;;;1.90;99.90;;;;;;10433822;28;20223;-85
2022/12/01 12:20:47;;;;;;;13.97;9.30;;;2.00;99.90;;;;;;10457794;28;20211;-87
2022/12/01 12:26:12;;;;;;;15.40;9.60;;;2.00;1.00;;;;;;10449020;28;20204;-85
2022/12/01 12:31:42;;;;;;;23.33;13.33;;;2.00;1.00;;;;;;10452622;28;20482;-80
2022/12/01 12:37:09;;;;;;;22.43;13.53;;;2.00;1.00;;;;;;10443249;28;20196;-82
2022/12/01 12:42:58;;;;;;;24.73;16.53;;;2.00;1.00;;;;;;10429156;28;20211;-83
2022/12/01 12:48:19;;;;;;;25.53;15.47;;;2.00;99.90;;;;;;10442692;28;20195;-83
2022/12/01 12:53:58;;;;;;;30.77;16.37;;;2.10;99.90;;;;;;10429505;28;20220;-84
2022/12/01 12:59:38;;;;;;;28.07;16.90;;;2.00;99.90;;;;;;10443067;28;20208;-88
2022/12/01 13:05:54;;;;;;;34.63;19.57;;;2.10;99.90;;;;;;10404592;28;20200;-81
2022/12/01 13:11:28;;;;;;;28.17;16.80;;;2.10;1.00;;;;;;10271403;28;20235;-81
2022/12/01 13:16:55;;;;;;;33.37;18.67;;;2.10;1.00;;;;;;10254850;29;20250;-85
2022/12/01 13:22:19;;;;;;;30.80;18.00;;;2.00;1.00;;;;;;10273679;28;20726;-89
2022/12/01 13:27:42;;;;;;;31.23;18.10;;;2.00;1.00;;;;;;10302822;28;20214;-84
2022/12/01 13:33:05;;;;;;;40.63;22.10;;;2.10;1.00;;;;;;10277203;28;20238;-85
2022/12/01 13:38:32;;;;;;;41.10;20.67;;;2.10;1.00;;;;;;10288613;28;20207;-84
2022/12/01 13:44:19;;;;;;;41.50;21.23;;;2.10;99.90;;;;;;10355481;28;20215;-83
2022/12/01 13:49:46;;;;;;;35.43;19.47;;;2.10;99.90;;;;;;10433226;28;20203;-84
2022/12/01 13:55:07;;;;;;;35.53;20.43;;;2.10;1.00;;;;;;10443018;28;20243;-82
2022/12/01 14:00:30;;;;;;;36.10;20.50;;;2.00;1.00;;;;;;10449654;28;20362;-83
2022/12/01 14:05:52;;;;;;;35.13;20.83;;;2.10;1.00;;;;;;10447982;28;20199;-82
2022/12/01 14:11:23;;;;;;;33.47;20.70;;;2.10;1.00;;;;;;10464536;28;20324;-80
2022/12/01 14:16:54;;;;;;;30.37;18.23;;;2.10;1.00;;;;;;10464864;28;20206;-83
2022/12/01 14:22:42;;;;;;;31.03;20.67;;;2.10;99.90;;;;;;10464429;28;20293;-80
2022/12/01 14:28:10;;;;;;;38.67;22.13;;;2.10;99.90;;;;;;10445661;28;20547;-79
2022/12/01 14:33:51;;;;;;;41.73;25.03;;;2.10;1.00;;;;;;10450674;28;20208;-82
2022/12/01 14:39:15;;;;;;;58.10;27.77;;;2.10;1.00;;;;;;10433942;28;20218;-80
2022/12/01 14:44:47;;;;;;;42.13;23.27;;;2.10;1.00;;;;;;10455556;28;20214;-79
2022/12/01 14:50:10;;;;;;;53.43;25.90;;;2.10;1.00;;;;;;10449064;28;20199;-80
2022/12/01 14:55:47;;;;;;;29.30;16.93;;;2.10;1.00;;;;;;10431939;28;20265;-80
2022/12/01 15:01:11;;;;;;;25.60;16.30;;;2.10;99.90;;;;;;10461932;28;20203;-79
2022/12/01 15:06:34;;;;;;;38.60;20.20;;;2.00;96.70;;;;;;10449823;28;20266;-82
2022/12/01 15:12:02;;;;;;;44.57;23.83;;;2.10;99.90;;;;;;10424335;28;20220;-83
2022/12/01 15:17:33;;;;;;;46.73;26.27;;;2.10;1.00;;;;;;10455971;28;20450;-82
2022/12/01 15:22:55;;;;;;;49.60;26.93;;;2.10;1.00;;;;;;10442023;28;20235;-84
2022/12/01 15:28:20;;;;;;;48.77;26.53;;;2.00;1.00;;;;;;10484394;28;20434;-84
2022/12/01 15:33:52;;;;;;;43.07;22.37;;;2.10;1.00;;;;;;10461241;28;20419;-83
2022/12/01 15:39:17;;;;;;;35.70;21.57;;;2.10;1.00;;;;;;10463771;28;20212;-83
2022/12/01 15:44:38;;;;;;;37.67;21.10;;;2.10;1.00;;;;;;10442328;28;20192;-84
2022/12/01 15:49:59;;;;;;;44.50;25.33;;;2.10;41.40;;;;;;10435118;28;20283;-86
2022/12/01 15:55:29;;;;;;;49.87;25.87;;;2.10;1.00;;;;;;10454693;28;20222;-84
2022/12/01 16:01:08;;;;;;;51.83;28.37;;;2.10;1.00;;;;;;10451874;28;20264;-83
2022/12/01 16:06:37;;;;;;;48.30;24.77;;;2.10;99.90;;;;;;10448224;28;20218;-84
2022/12/01 16:12:08;;;;;;;42.07;21.07;;;2.20;1.00;;;;;;10446144;28;20227;-82
2022/12/01 16:17:51;;;;;;;50.77;24.93;;;2.10;99.90;;;;;;10433957;28;20199;-80
2022/12/01 16:23:21;;;;;;;50.87;26.30;;;2.10;1.00;;;;;;10435470;28;20476;-81
2022/12/01 16:28:42;;;;;;;63.97;32.20;;;2.10;1.00;;;;;;10446081;28;20196;-81
2022/12/01 16:34:04;;;;;;;79.50;36.03;;;2.10;99.90;;;;;;10434006;28;20256;-83
2022/12/01 16:39:29;;;;;;;65.53;31.17;;;2.10;99.90;;;;;;10461972;28;20264;-81
2022/12/01 16:44:51;;;;;;;74.67;34.73;;;2.10;1.00;;;;;;10445314;28;20202;-80
2022/12/01 16:50:17;;;;;;;60.93;30.13;;;2.10;1.00;;;;;;10446859;28;20210;-82
2022/12/01 16:55:57;;;;;;;53.23;26.97;;;2.10;1.00;;;;;;10479344;28;20242;-81
2022/12/01 17:01:18;;;;;;;50.70;24.87;;;2.20;31.70;;;;;;10442557;28;20490;-80
2022/12/01 17:06:39;;;;;;;49.63;25.50;;;2.20;99.90;;;;;;10453993;28;20195;-86
2022/12/01 17:12:01;;;;;;;91.03;38.17;;;2.20;1.00;;;;;;10466375;28;20223;-80
2022/12/01 17:17:22;;;;;;;90.77;38.13;;;2.30;1.00;;;;;;10456302;28;20452;-80
2022/12/01 17:22:43;;;;;;;132.90;52.23;;;2.30;99.90;;;;;;10434862;28;20413;-86
2022/12/01 17:28:04;;;;;;;174.27;62.47;;;2.30;99.90;;;;;;10474070;28;20226;-84
2022/12/01 17:33:26;;;;;;;177.90;62.93;;;2.30;1.00;;;;;;10495932;28;20234;-79
2022/12/01 17:38:47;;;;;;;192.23;71.27;;;2.30;99.90;;;;;;10507711;28;20209;-81
2022/12/01 17:44:08;;;;;;;193.97;74.20;;;2.30;1.00;;;;;;10456852;28;20430;-78
2022/12/01 17:49:30;;;;;;;162.00;59.93;;;2.30;1.00;;;;;;10474225;28;20187;-78
2022/12/01 17:54:53;;;;;;;93.30;40.83;;;2.30;1.00;;;;;;10465984;28;20299;-82
2022/12/01 18:00:15;;;;;;;73.97;31.73;;;2.30;1.00;;;;;;10441880;28;20204;-80
2022/12/01 18:05:36;;;;;;;56.03;26.03;;;2.30;2.80;;;;;;10454780;28;20191;-80
2022/12/01 18:11:06;;;;;;;45.30;22.10;;;2.30;1.00;;;;;;10455704;28;20200;-85
2022/12/01 18:16:30;;;;;;;45.57;21.00;;;2.30;1.00;;;;;;10456202;28;20219;-81
2022/12/01 18:21:51;;;;;;;42.47;20.80;;;2.30;99.90;;;;;;10474093;28;20234;-80
2022/12/01 18:27:12;;;;;;;57.50;28.03;;;2.30;1.00;;;;;;10472313;28;20200;-88
2022/12/01 18:32:34;;;;;;;71.97;32.87;;;2.30;99.90;;;;;;10465494;28;20227;-78
2022/12/01 18:37:55;;;;;;;69.27;32.53;;;2.30;99.90;;;;;;10494454;28;20235;-80
2022/12/01 18:43:19;;;;;;;59.87;31.77;;;2.40;1.00;;;;;;10462411;28;20200;-80
2022/12/01 18:48:48;;;;;;;56.53;28.20;;;2.40;1.00;;;;;;10453140;28;20204;-88
2022/12/01 18:54:12;;;;;;;43.33;22.90;;;2.50;24.00;;;;;;10461337;28;20544;-87
2022/12/01 18:59:33;;;;;;;41.87;21.80;;;2.50;1.00;;;;;;10513467;28;20208;-81
2022/12/01 19:04:54;;;;;;;73.67;37.50;;;2.40;1.00;;;;;;10504933;28;20210;-87
2022/12/01 19:10:16;;;;;;;83.53;43.20;;;2.40;1.00;;;;;;10468627;28;20195;-79
2022/12/01 19:15:37;;;;;;;76.77;37.90;;;2.40;68.70;;;;;;10455515;28;20289;-87
2022/12/01 19:21:06;;;;;;;69.80;35.33;;;2.30;1.00;;;;;;10466071;28;20191;-79
2022/12/01 19:26:27;;;;;;;58.83;32.63;;;2.10;99.90;;;;;;10456456;28;20195;-90
2022/12/01 19:31:48;;;;;;;60.13;33.00;;;2.10;1.00;;;;;;10464454;28;20224;-81
2022/12/01 19:37:10;;;;;;;74.47;38.87;;;2.00;1.00;;;;;;10482211;28;20191;-88
2022/12/01 19:42:31;;;;;;;112.60;53.60;;;2.00;70.60;;;;;;10437271;28;20198;-83
2022/12/01 19:47:52;;;;;;;112.43;53.43;;;2.10;99.90;;;;;;10452471;28;20410;-89
2022/12/01 19:53:14;;;;;;;102.03;47.77;;;2.10;1.00;;;;;;10472886;28;20221;-87
2022/12/01 19:58:35;;;;;;;85.27;43.40;;;2.10;1.00;;;;;;10492544;28;22023;-89
2022/12/01 20:03:56;;;;;;;69.93;36.50;;;2.10;1.00;;;;;;10496870;28;20198;-85
2022/12/01 20:09:17;;;;;;;73.20;35.70;;;2.00;1.00;;;;;;10438171;28;20540;-87
2022/12/01 20:14:39;;;;;;;61.70;31.27;;;2.00;1.00;;;;;;10424444;28;20231;-89
2022/12/01 20:20:02;;;;;;;45.80;24.60;;;2.00;1.00;;;;;;10411093;28;20206;-86
2022/12/01 20:25:23;;;;;;;56.30;27.70;;;2.00;1.00;;;;;;10446119;28;20230;-84
2022/12/01 20:30:44;;;;;;;58.43;27.03;;;2.00;1.00;;;;;;10449534;28;20274;-86
2022/12/01 20:36:07;;;;;;;61.70;28.07;;;2.00;1.00;;;;;;10422028;28;20230;-86
2022/12/01 20:41:28;;;;;;;47.43;23.23;;;2.10;1.00;;;;;;10407927;28;20232;-89
2022/12/01 20:46:49;;;;;;;58.33;27.87;;;2.00;99.90;;;;;;10421700;28;20215;-89
2022/12/01 20:52:10;;;;;;;59.87;31.77;;;2.00;1.00;;;;;;10423800;28;20227;-81
2022/12/01 20:57:32;;;;;;;69.00;34.03;;;2.10;71.00;;;;;;10462121;28;20274;-88
2022/12/01 21:02:53;;;;;;;66.67;36.60;;;2.10;1.00;;;;;;10433293;28;20263;-86
2022/12/01 21:08:14;;;;;;;76.17;36.97;;;2.10;1.00;;;;;;10448028;28;20219;-82
2022/12/01 21:13:40;;;;;;;49.67;24.40;;;2.00;1.00;;;;;;10433683;28;20277;-88
2022/12/01 21:19:12;;;;;;;33.27;17.77;;;1.90;1.00;;;;;;10448250;28;20191;-88
2022/12/01 21:24:33;;;;;;;25.53;15.63;;;1.90;1.00;;;;;;10463550;28;20246;-85
2022/12/01 21:29:57;;;;;;;31.07;16.77;;;1.90;1.00;;;;;;10487990;28;20226;-88
2022/12/01 21:35:23;;;;;;;30.37;17.50;;;1.90;1.00;;;;;;10446748;28;20223;-85
2022/12/01 21:40:45;;;;;;;32.90;21.37;;;1.90;1.00;;;;;;10463414;28;20190;-88
2022/12/01 21:46:13;;;;;;;38.60;21.37;;;1.90;99.90;;;;;;10449688;28;20215;-87
2022/12/01 21:51:36;;;;;;;34.00;19.50;;;1.90;99.90;;;;;;10446794;28;20237;-89
2022/12/01 21:56:57;;;;;;;32.53;19.73;;;1.90;99.90;;;;;;10472212;28;20202;-88
2022/12/01 22:02:51;;;;;;;39.97;21.87;;;1.90;99.90;;;;;;10464357;28;20246;-90
2022/12/01 22:08:12;;;;;;;41.63;22.23;;;2.00;99.90;;;;;;10483368;28;20497;-86
2022/12/01 22:13:39;;;;;;;34.90;20.43;;;2.00;99.90;;;;;;10498392;28;20273;-88
2022/12/01 22:19:13;;;;;;;35.03;19.03;;;1.90;99.90;;;;;;10462794;28;20192;-87
2022/12/01 22:24:43;;;;;;;37.77;21.10;;;1.90;99.90;;;;;;10452834;28;20305;-89
2022/12/01 22:30:04;;;;;;;37.30;20.60;;;1.90;60.10;;;;;;10463149;28;20199;-87
2022/12/01 22:35:42;;;;;;;41.47;21.17;;;1.90;99.90;;;;;;10469331;28;20253;-80
2022/12/01 22:41:13;;;;;;;37.07;19.97;;;2.00;99.90;;;;;;10466979;28;20187;-88
2022/12/01 22:46:38;;;;;;;33.53;18.47;;;2.00;85.80;;;;;;10452461;28;20277;-87
2022/12/01 22:52:13;;;;;;;33.47;18.43;;;2.00;99.90;;;;;;10468914;28;20214;-80
2022/12/01 22:57:36;;;;;;;30.13;18.00;;;2.00;99.90;;;;;;10441585;28;20278;-85
2022/12/01 23:02:58;;;;;;;27.57;15.97;;;1.90;99.90;;;;;;10438203;28;20192;-86
2022/12/01 23:08:22;;;;;;;31.20;17.37;;;1.90;53.80;;;;;;10483056;28;20248;-83
2022/12/01 23:13:43;;;;;;;30.30;17.80;;;1.90;99.90;;;;;;10468253;28;20225;-86
2022/12/01 23:19:04;;;;;;;27.47;15.40;;;2.00;99.90;;;;;;10442785;28;20203;-79
2022/12/01 23:24:39;;;;;;;31.93;16.97;;;2.00;99.90;;;;;;10484864;28;20224;-79
2022/12/01 23:30:00;;;;;;;25.33;14.53;;;1.90;99.90;;;;;;10468530;28;20202;-82
2022/12/01 23:35:22;;;;;;;29.83;16.30;;;1.90;99.90;;;;;;10453043;28;20293;-82
2022/12/01 23:40:43;;;;;;;31.70;17.03;;;2.00;1.00;;;;;;10453230;28;20188;-86
2022/12/01 23:46:09;;;;;;;29.87;16.20;;;2.00;1.00;;;;;;10463898;28;20226;-81
2022/12/01 23:51:33;;;;;;;29.73;14.67;;;2.00;1.00;;;;;;10435987;28;20191;-81
2022/12/01 23:56:57;;;;;;;28.57;15.37;;;2.00;1.00;;;;;;10502938;28;20504;-83
